createdAt,value
2022-12-04T00:00:52.921Z,43.60
2022-12-04T00:03:22.634Z,47.77
2022-12-04T00:05:52.649Z,45.73
2022-12-04T00:08:23.316Z,42.17
2022-12-04T00:11:00.857Z,44.87
2022-12-04T00:13:30.759Z,47.17
2022-12-04T00:16:02.393Z,46.63
2022-12-04T00:18:34.771Z,50.37
2022-12-04T00:21:20.102Z,48.40
2022-12-04T00:23:54.609Z,45.80
2022-12-04T00:26:33.293Z,48.87
2022-12-04T00:29:09.064Z,57.13
2022-12-04T00:31:38.285Z,48.83
2022-12-04T00:34:15.491Z,48.30
2022-12-04T00:36:45.749Z,48.27
2022-12-04T00:39:22.500Z,52.33
2022-12-04T00:42:07.587Z,50.53
2022-12-04T00:44:36.312Z,54.70
2022-12-04T00:47:05.241Z,50.63
2022-12-04T00:49:35.698Z,52.17
2022-12-04T00:52:11.408Z,50.23
2022-12-04T00:54:41.568Z,58.03
2022-12-04T00:57:12.393Z,53.43
2022-12-04T00:59:49.396Z,54.43
2022-12-04T01:02:18.531Z,53.17
2022-12-04T01:04:50.318Z,50.23
2022-12-04T01:07:19.534Z,55.10
2022-12-04T01:09:48.467Z,58.03
2022-12-04T01:12:21.083Z,53.50
2022-12-04T01:14:51.227Z,54.43
2022-12-04T01:17:20.291Z,53.13
2022-12-04T01:19:54.595Z,49.90
2022-12-04T01:22:25.554Z,53.40
2022-12-04T01:24:57.953Z,53.40
2022-12-04T01:27:29.838Z,52.23
2022-12-04T01:30:08.132Z,52.43
2022-12-04T01:32:38.899Z,59.27
2022-12-04T01:35:12.942Z,54.97
2022-12-04T01:37:43.194Z,52.83
2022-12-04T01:40:21.421Z,51.20
2022-12-04T01:42:56.313Z,56.47
2022-12-04T01:45:44.574Z,58.40
2022-12-04T01:48:24.502Z,58.73
2022-12-04T01:50:57.608Z,55.83
2022-12-04T01:53:26.558Z,59.20
2022-12-04T01:55:56.244Z,60.27
2022-12-04T01:58:32.379Z,55.03
2022-12-04T02:01:08.513Z,60.17
2022-12-04T02:03:38.454Z,63.57
2022-12-04T02:06:08.473Z,56.37
2022-12-04T02:08:37.987Z,58.87
2022-12-04T02:11:17.967Z,57.47
2022-12-04T02:13:58.790Z,59.23
2022-12-04T02:16:40.677Z,60.10
2022-12-04T02:19:49.001Z,62.10
2022-12-04T02:22:35.738Z,59.23
2022-12-04T02:25:11.976Z,55.47
2022-12-04T02:28:06.514Z,62.23
2022-12-04T02:30:40.825Z,58.63
2022-12-04T02:33:18.504Z,54.40
2022-12-04T02:35:50.540Z,58.40
2022-12-04T02:38:27.410Z,57.10
2022-12-04T02:41:00.310Z,56.23
2022-12-04T02:43:34.445Z,55.87
2022-12-04T02:46:08.719Z,57.07
2022-12-04T02:48:42.038Z,58.97
2022-12-04T02:51:16.165Z,60.40
2022-12-04T02:53:50.758Z,64.63
2022-12-04T02:56:25.128Z,64.97
2022-12-04T02:58:59.035Z,60.63
2022-12-04T03:01:34.431Z,59.47
2022-12-04T03:04:12.037Z,61.40
2022-12-04T03:06:48.971Z,65.63
2022-12-04T03:09:23.765Z,64.70
2022-12-04T03:11:58.036Z,64.07
2022-12-04T03:14:32.779Z,64.60
2022-12-04T03:17:10.268Z,63.90
2022-12-04T03:19:43.096Z,62.03
2022-12-04T03:22:17.088Z,62.93
2022-12-04T03:24:51.680Z,59.13
2022-12-04T03:27:30.345Z,57.37
2022-12-04T03:30:05.835Z,66.00
2022-12-04T03:32:42.960Z,62.47
2022-12-04T03:35:19.035Z,58.57
2022-12-04T03:37:58.050Z,65.93
2022-12-04T03:40:35.306Z,59.50
2022-12-04T03:43:08.959Z,61.43
2022-12-04T03:45:46.390Z,64.63
2022-12-04T03:48:23.624Z,62.30
2022-12-04T03:51:04.033Z,64.47
2022-12-04T03:53:39.709Z,60.43
2022-12-04T03:56:15.798Z,60.10
2022-12-04T03:58:48.686Z,63.53
2022-12-04T04:01:24.614Z,66.83
2022-12-04T04:03:56.674Z,58.10
2022-12-04T04:06:32.500Z,66.13
2022-12-04T04:09:06.784Z,62.80
2022-12-04T04:11:47.633Z,58.37
2022-12-04T04:14:39.533Z,57.47
2022-12-04T04:17:34.941Z,61.60
2022-12-04T04:20:28.837Z,59.53
2022-12-04T04:23:17.703Z,70.00
2022-12-04T04:25:49.409Z,60.07
2022-12-04T04:28:32.661Z,68.57
2022-12-04T04:31:14.631Z,60.67
2022-12-04T04:33:53.704Z,64.70
2022-12-04T04:36:33.828Z,64.10
2022-12-04T04:39:11.581Z,63.30
2022-12-04T04:41:51.398Z,64.40
2022-12-04T04:44:26.801Z,61.10
2022-12-04T04:47:00.947Z,67.03
2022-12-04T04:49:35.518Z,66.67
2022-12-04T04:52:05.126Z,61.23
2022-12-04T04:54:35.560Z,63.63
2022-12-04T04:57:04.103Z,62.70
2022-12-04T04:59:34.707Z,61.93
2022-12-04T05:02:03.691Z,62.37
2022-12-04T05:04:33.710Z,65.30
2022-12-04T05:07:02.578Z,63.17
2022-12-04T05:09:30.913Z,64.50
2022-12-04T05:11:59.364Z,63.23
2022-12-04T05:14:27.738Z,70.73
2022-12-04T05:17:01.306Z,65.97
2022-12-04T05:19:53.120Z,68.53
2022-12-04T05:22:24.519Z,62.87
2022-12-04T05:24:53.505Z,67.13
2022-12-04T05:27:22.795Z,57.50
2022-12-04T05:29:53.788Z,63.70
2022-12-04T05:32:23.647Z,63.33
2022-12-04T05:34:56.437Z,60.87
2022-12-04T05:37:25.331Z,65.33
2022-12-04T05:39:54.762Z,62.27
2022-12-04T05:42:23.695Z,61.10
2022-12-04T05:44:52.277Z,61.10
2022-12-04T05:47:20.745Z,61.97
2022-12-04T05:49:49.282Z,64.30
2022-12-04T05:52:19.214Z,67.73
2022-12-04T05:54:47.737Z,58.97
2022-12-04T05:57:16.282Z,56.87
2022-12-04T05:59:45.078Z,60.20
2022-12-04T06:02:13.546Z,55.83
2022-12-04T06:04:42.046Z,64.13
2022-12-04T06:07:13.570Z,62.20
2022-12-04T06:09:43.951Z,70.63
2022-12-04T06:12:20.526Z,62.10
2022-12-04T06:14:50.904Z,62.63
2022-12-04T06:17:21.836Z,61.67
2022-12-04T06:19:53.516Z,61.43
2022-12-04T06:22:23.200Z,59.47
2022-12-04T06:24:56.984Z,65.23
2022-12-04T06:27:34.866Z,60.43
2022-12-04T06:30:06.824Z,65.03
2022-12-04T06:32:38.266Z,62.40
2022-12-04T06:35:25.625Z,71.03
2022-12-04T06:37:54.139Z,70.20
2022-12-04T06:40:29.952Z,65.57
2022-12-04T06:42:58.850Z,59.53
2022-12-04T06:45:30.937Z,70.63
2022-12-04T06:48:05.870Z,65.90
2022-12-04T06:50:38.236Z,66.17
2022-12-04T06:53:26.489Z,63.60
2022-12-04T06:56:07.011Z,64.67
2022-12-04T06:58:42.433Z,64.63
2022-12-04T07:01:18.069Z,65.60
2022-12-04T07:03:51.758Z,68.13
2022-12-04T07:06:27.714Z,61.60
2022-12-04T07:09:04.299Z,64.13
2022-12-04T07:11:35.504Z,65.03
2022-12-04T07:14:13.717Z,62.77
2022-12-04T07:16:44.504Z,67.97
2022-12-04T07:19:17.958Z,64.27
2022-12-04T07:21:51.637Z,67.23
2022-12-04T07:24:21.598Z,63.00
2022-12-04T07:26:56.529Z,63.80
2022-12-04T07:29:26.449Z,64.00
2022-12-04T07:31:58.180Z,64.57
2022-12-04T07:34:28.538Z,67.93
2022-12-04T07:36:59.513Z,63.67
2022-12-04T07:39:29.576Z,59.50
2022-12-04T07:42:07.322Z,62.27
2022-12-04T07:44:37.316Z,61.40
2022-12-04T07:47:14.681Z,64.07
2022-12-04T07:49:45.889Z,60.13
2022-12-04T07:52:18.853Z,66.23
2022-12-04T07:54:53.199Z,64.23
2022-12-04T07:57:23.053Z,65.70
2022-12-04T07:59:51.390Z,61.77
2022-12-04T08:02:20.994Z,63.83
2022-12-04T08:04:49.559Z,60.77
2022-12-04T08:07:18.054Z,60.70
2022-12-04T08:09:46.352Z,58.53
2022-12-04T08:12:14.753Z,57.23
2022-12-04T08:14:44.838Z,59.57
2022-12-04T08:17:15.310Z,59.23
2022-12-04T08:19:43.946Z,53.43
2022-12-04T08:22:12.506Z,58.10
2022-12-04T08:24:40.953Z,61.93
2022-12-04T08:27:09.427Z,59.47
2022-12-04T08:29:38.351Z,60.27
2022-12-04T08:32:08.597Z,58.97
2022-12-04T08:34:37.047Z,56.23
2022-12-04T08:37:07.953Z,51.57
2022-12-04T08:39:36.867Z,56.80
2022-12-04T08:42:05.528Z,59.63
2022-12-04T08:44:33.970Z,60.70
2022-12-04T08:47:05.380Z,57.07
2022-12-04T08:49:35.432Z,54.07
2022-12-04T08:52:04.052Z,55.83
2022-12-04T08:54:36.116Z,54.60
2022-12-04T08:57:05.466Z,51.73
2022-12-04T08:59:34.085Z,59.40
2022-12-04T09:02:02.718Z,55.17
2022-12-04T09:04:31.203Z,55.20
2022-12-04T09:07:01.761Z,53.60
2022-12-04T09:09:30.427Z,60.80
2022-12-04T09:11:58.919Z,55.83
2022-12-04T09:14:27.315Z,52.47
2022-12-04T09:16:55.796Z,53.97
2022-12-04T09:19:24.959Z,50.83
2022-12-04T09:22:02.449Z,52.50
2022-12-04T09:24:37.023Z,54.97
2022-12-04T09:27:14.643Z,49.40
2022-12-04T09:29:43.567Z,54.30
2022-12-04T09:32:11.975Z,53.30
2022-12-04T09:34:44.363Z,51.07
2022-12-04T09:37:17.929Z,45.77
2022-12-04T09:39:48.159Z,52.13
2022-12-04T09:42:35.314Z,49.73
2022-12-04T09:45:12.103Z,47.30
2022-12-04T09:47:44.715Z,44.83
2022-12-04T09:50:19.404Z,47.63
2022-12-04T09:52:57.395Z,42.80
2022-12-04T09:55:30.678Z,44.57
2022-12-04T09:58:02.582Z,45.90
2022-12-04T10:00:33.924Z,46.37
2022-12-04T10:03:40.724Z,42.80
2022-12-04T10:06:29.266Z,45.40
2022-12-04T10:09:06.177Z,41.87
2022-12-04T10:11:50.610Z,43.97
2022-12-04T10:14:47.542Z,40.83
2022-12-04T10:18:02.939Z,39.37
2022-12-04T10:20:52.976Z,36.70
2022-12-04T10:23:35.917Z,37.43
2022-12-04T10:26:06.778Z,37.10
2022-12-04T10:28:42.017Z,43.33
2022-12-04T10:31:15.380Z,37.37
2022-12-04T10:33:48.845Z,36.30
2022-12-04T10:36:21.451Z,35.33
2022-12-04T10:38:55.161Z,36.30
2022-12-04T10:41:29.359Z,36.40
2022-12-04T10:43:59.086Z,37.07
2022-12-04T10:46:35.075Z,36.53
2022-12-04T10:49:06.935Z,34.40
2022-12-04T10:51:43.854Z,33.77
2022-12-04T10:54:23.734Z,32.83
2022-12-04T10:56:57.751Z,31.93
2022-12-04T10:59:28.246Z,29.40
2022-12-04T11:02:07.311Z,30.77
2022-12-04T11:04:36.788Z,31.10
2022-12-04T11:07:09.090Z,30.70
2022-12-04T11:09:38.418Z,29.50
2022-12-04T11:12:11.229Z,30.30
2022-12-04T11:14:47.001Z,29.47
2022-12-04T11:17:20.534Z,31.57
2022-12-04T11:19:48.878Z,31.70
2022-12-04T11:22:19.959Z,31.13
2022-12-04T11:24:54.592Z,31.50
2022-12-04T11:27:28.093Z,30.27
2022-12-04T11:30:02.752Z,32.37
2022-12-04T11:32:34.148Z,34.30
2022-12-04T11:35:14.701Z,30.20
2022-12-04T11:37:45.475Z,31.20
2022-12-04T11:40:19.943Z,35.53
2022-12-04T11:43:02.506Z,37.17
2022-12-04T11:45:32.667Z,33.47
2022-12-04T11:48:04.783Z,32.73
2022-12-04T11:50:47.223Z,31.07
2022-12-04T11:53:20.518Z,32.20
2022-12-04T11:56:15.079Z,32.43
2022-12-04T11:59:13.027Z,31.90
2022-12-04T12:01:57.778Z,30.93
2022-12-04T12:04:54.877Z,33.33
2022-12-04T12:07:40.356Z,28.10
2022-12-04T12:10:17.573Z,28.13
2022-12-04T12:12:58.740Z,30.60
2022-12-04T12:15:40.808Z,31.87
2022-12-04T12:18:34.406Z,31.07
2022-12-04T12:21:10.850Z,32.83
2022-12-04T12:24:06.028Z,32.73
2022-12-04T12:26:47.309Z,32.63
2022-12-04T12:29:40.103Z,32.13
2022-12-04T12:32:31.678Z,31.40
2022-12-04T12:35:02.415Z,30.00
2022-12-04T12:37:41.132Z,32.63
2022-12-04T12:40:22.716Z,32.73
2022-12-04T12:42:58.716Z,32.13
2022-12-04T12:45:36.122Z,28.77
2022-12-04T12:48:22.792Z,34.17
2022-12-04T12:51:22.236Z,33.80
2022-12-04T12:53:51.392Z,35.67
2022-12-04T12:56:38.449Z,33.17
2022-12-04T12:59:14.577Z,33.63
2022-12-04T13:01:49.819Z,32.03
2022-12-04T13:04:24.114Z,34.07
2022-12-04T13:07:04.736Z,31.33
2022-12-04T13:09:36.243Z,32.07
2022-12-04T13:12:12.275Z,33.93
2022-12-04T13:14:47.402Z,33.93
2022-12-04T13:17:22.666Z,31.00
2022-12-04T13:19:55.312Z,34.87
2022-12-04T13:22:35.747Z,32.97
2022-12-04T13:25:23.338Z,32.37
2022-12-04T13:28:06.628Z,34.60
2022-12-04T13:30:46.601Z,36.47
2022-12-04T13:33:50.777Z,35.83
2022-12-04T13:36:33.755Z,35.43
2022-12-04T13:40:01.816Z,38.47
2022-12-04T13:42:30.979Z,35.67
2022-12-04T13:45:04.795Z,40.43
2022-12-04T13:47:35.926Z,42.93
2022-12-04T13:50:25.273Z,40.10
2022-12-04T13:52:53.775Z,40.97
2022-12-04T13:55:33.232Z,51.60
2022-12-04T13:58:04.316Z,49.93
2022-12-04T14:00:36.168Z,48.03
2022-12-04T14:03:08.804Z,48.00
2022-12-04T14:05:44.295Z,48.97
2022-12-04T14:08:26.181Z,49.90
2022-12-04T14:11:09.648Z,47.03
2022-12-04T14:13:46.288Z,48.57
2022-12-04T14:16:23.325Z,54.13
2022-12-04T14:18:55.784Z,56.43
2022-12-04T14:21:26.521Z,49.13
2022-12-04T14:23:55.595Z,49.97
2022-12-04T14:27:10.745Z,49.00
2022-12-04T14:29:49.401Z,45.27
2022-12-04T14:32:23.186Z,42.70
2022-12-04T14:34:52.987Z,37.23
2022-12-04T14:37:28.263Z,44.00
2022-12-04T14:39:57.948Z,38.87
2022-12-04T14:42:31.849Z,37.53
2022-12-04T14:45:02.727Z,35.27
2022-12-04T14:47:42.401Z,36.40
2022-12-04T14:50:29.873Z,36.83
2022-12-04T14:53:06.947Z,36.23
2022-12-04T14:55:43.790Z,35.77
2022-12-04T14:58:31.875Z,37.57
2022-12-04T15:01:03.439Z,36.60
2022-12-04T15:03:36.495Z,38.17
2022-12-04T15:06:26.534Z,35.27
2022-12-04T15:09:18.590Z,36.53
2022-12-04T15:12:21.985Z,40.17
2022-12-04T15:14:52.370Z,37.70
2022-12-04T15:17:20.778Z,37.73
2022-12-04T15:19:51.150Z,39.03
2022-12-04T15:22:25.195Z,38.27
2022-12-04T15:24:54.905Z,40.23
2022-12-04T15:27:32.890Z,43.37
2022-12-04T15:30:04.931Z,42.27
2022-12-04T15:32:34.986Z,40.83
2022-12-04T15:35:09.109Z,41.00
2022-12-04T15:37:38.214Z,42.33
2022-12-04T15:40:11.928Z,42.90
2022-12-04T15:42:49.366Z,46.97
2022-12-04T15:45:34.471Z,44.43
2022-12-04T15:48:03.618Z,43.47
2022-12-04T15:50:32.632Z,44.77
2022-12-04T15:53:08.334Z,43.87
2022-12-04T15:55:41.498Z,41.63
2022-12-04T15:58:24.767Z,48.00
2022-12-04T16:01:01.254Z,49.67
2022-12-04T16:03:33.051Z,45.00
2022-12-04T16:08:51.898Z,47.53
2022-12-04T16:11:42.046Z,47.53
2022-12-04T16:14:26.249Z,45.67
2022-12-04T16:17:05.563Z,45.70
2022-12-04T16:19:37.435Z,43.37
2022-12-04T16:22:14.165Z,45.63
2022-12-04T16:24:43.048Z,48.23
2022-12-04T16:27:14.803Z,47.43
2022-12-04T16:29:43.499Z,45.73
2022-12-04T16:32:32.027Z,43.60
2022-12-04T16:35:00.894Z,46.43
2022-12-04T16:37:30.049Z,47.60
2022-12-04T16:39:59.265Z,46.13
2022-12-04T16:42:30.596Z,48.53
2022-12-04T16:45:00.124Z,44.17
2022-12-04T16:47:30.121Z,44.03
2022-12-04T16:49:58.771Z,44.10
2022-12-04T16:52:27.199Z,43.40
2022-12-04T16:54:58.324Z,45.17
2022-12-04T16:57:29.018Z,43.90
2022-12-04T16:59:57.739Z,47.63
2022-12-04T17:02:30.551Z,45.53
2022-12-04T17:04:59.452Z,48.97
2022-12-04T17:07:28.227Z,45.43
2022-12-04T17:09:56.669Z,46.27
2022-12-04T17:12:25.176Z,41.60
2022-12-04T17:14:53.795Z,45.97
2022-12-04T17:17:23.897Z,49.53
2022-12-04T17:19:54.325Z,43.10
2022-12-04T17:22:26.468Z,41.53
2022-12-04T17:24:56.442Z,45.60
2022-12-04T17:27:25.920Z,43.17
2022-12-04T17:29:54.365Z,45.63
2022-12-04T17:32:22.860Z,47.40
2022-12-04T17:34:55.196Z,45.67
2022-12-04T17:37:24.129Z,43.60
2022-12-04T17:39:52.652Z,46.57
2022-12-04T17:42:21.566Z,48.20
2022-12-04T17:44:50.379Z,44.13
2022-12-04T17:47:19.730Z,47.53
2022-12-04T17:49:48.376Z,46.60
2022-12-04T17:52:19.750Z,43.90
2022-12-04T17:54:49.838Z,45.67
2022-12-04T17:57:18.717Z,47.50
2022-12-04T17:59:47.200Z,43.03
2022-12-04T18:02:16.555Z,43.77
2022-12-04T18:04:45.059Z,45.80
2022-12-04T18:07:13.628Z,47.70
2022-12-04T18:09:46.091Z,48.17
2022-12-04T18:12:14.966Z,47.57
2022-12-04T18:14:43.749Z,48.77
2022-12-04T18:17:12.226Z,45.93
2022-12-04T18:19:40.721Z,45.03
2022-12-04T18:22:09.634Z,47.93
2022-12-04T18:24:38.244Z,47.80
2022-12-04T18:27:09.360Z,43.60
2022-12-04T18:29:38.390Z,47.30
2022-12-04T18:32:07.220Z,44.80
2022-12-04T18:34:35.951Z,45.97
2022-12-04T18:37:04.594Z,44.20
2022-12-04T18:39:33.644Z,44.93
2022-12-04T18:42:02.529Z,42.77
2022-12-04T18:44:35.261Z,46.93
2022-12-04T18:47:03.754Z,46.27
2022-12-04T18:49:32.633Z,45.60
2022-12-04T18:52:01.192Z,44.60
2022-12-04T18:54:30.055Z,43.17
2022-12-04T18:56:58.687Z,47.00
2022-12-04T18:59:30.885Z,42.43
2022-12-04T19:02:01.133Z,44.13
2022-12-04T19:04:29.854Z,46.53
2022-12-04T19:06:58.522Z,47.43
2022-12-04T19:12:21.160Z,43.37
2022-12-04T19:14:51.728Z,48.77
2022-12-04T19:17:22.898Z,46.27
2022-12-04T19:19:52.461Z,42.13
2022-12-04T19:22:20.945Z,46.60
2022-12-04T19:24:49.833Z,46.43
2022-12-04T19:27:18.535Z,45.13
2022-12-04T19:29:50.054Z,43.80
2022-12-04T19:32:26.723Z,41.00
2022-12-04T19:34:55.423Z,45.13
2022-12-04T19:37:23.887Z,43.07
2022-12-04T19:39:52.527Z,45.43
2022-12-04T19:42:20.968Z,42.43
2022-12-04T19:44:50.010Z,43.37
2022-12-04T19:47:19.505Z,46.60
2022-12-04T19:49:49.606Z,42.47
2022-12-04T19:52:18.583Z,45.90
2022-12-04T19:54:47.160Z,44.13
2022-12-04T19:57:16.053Z,49.63
2022-12-04T19:59:47.431Z,43.57
2022-12-04T20:02:16.623Z,45.73
2022-12-04T20:04:45.282Z,46.70
2022-12-04T20:07:15.494Z,45.40
2022-12-04T20:09:52.032Z,46.50
2022-12-04T20:12:21.101Z,49.00
2022-12-04T20:14:49.651Z,47.67
2022-12-04T20:17:18.704Z,47.03
2022-12-04T20:19:49.629Z,44.90
2022-12-04T20:22:20.104Z,46.77
2022-12-04T20:24:48.680Z,45.30
2022-12-04T20:27:17.888Z,43.50
2022-12-04T20:29:46.978Z,45.10
2022-12-04T20:32:15.461Z,41.83
2022-12-04T20:34:44.156Z,45.97
2022-12-04T20:37:13.033Z,44.23
2022-12-04T20:39:47.226Z,50.33
2022-12-04T20:42:16.506Z,44.13
2022-12-04T20:44:45.059Z,44.40
2022-12-04T20:47:16.381Z,45.77
2022-12-04T20:49:45.204Z,45.20
2022-12-04T20:52:16.890Z,47.63
2022-12-04T20:54:47.427Z,45.13
2022-12-04T20:57:16.097Z,44.13
2022-12-04T20:59:44.539Z,44.20
2022-12-04T21:02:13.597Z,45.20
2022-12-04T21:04:42.783Z,43.33
2022-12-04T21:07:12.621Z,45.10
2022-12-04T21:09:41.538Z,46.97
2022-12-04T21:12:27.425Z,41.90
2022-12-04T21:15:18.646Z,43.23
2022-12-04T21:17:47.073Z,43.30
2022-12-04T21:20:16.110Z,41.83
2022-12-04T21:22:45.201Z,43.90
2022-12-04T21:25:14.355Z,42.63
2022-12-04T21:27:44.558Z,43.27
2022-12-04T21:30:14.734Z,39.37
2022-12-04T21:32:43.382Z,44.93
2022-12-04T21:35:12.491Z,42.00
2022-12-04T21:37:41.009Z,43.63
2022-12-04T21:40:11.187Z,46.27
2022-12-04T21:42:40.000Z,39.17
2022-12-04T21:45:11.342Z,41.43
2022-12-04T21:47:39.866Z,44.53
2022-12-04T21:50:10.353Z,45.03
2022-12-04T21:52:38.978Z,39.57
2022-12-04T21:55:08.117Z,39.73
2022-12-04T21:57:36.555Z,44.47
2022-12-04T22:00:06.303Z,40.37
2022-12-04T22:02:38.156Z,41.73
2022-12-04T22:05:07.782Z,43.43
2022-12-04T22:07:36.561Z,44.80
2022-12-04T22:10:10.610Z,41.97
2022-12-04T22:12:49.448Z,41.73
2022-12-04T22:15:18.780Z,43.80
2022-12-04T22:17:49.040Z,38.90
2022-12-04T22:20:20.476Z,34.73
2022-12-04T22:22:51.747Z,36.80
2022-12-04T22:25:20.445Z,36.17
2022-12-04T22:27:49.011Z,38.63
2022-12-04T22:30:17.834Z,39.27
2022-12-04T22:32:47.947Z,37.93
2022-12-04T22:35:19.369Z,38.90
2022-12-04T22:37:47.923Z,33.10
2022-12-04T22:40:18.024Z,34.27
2022-12-04T22:42:46.573Z,27.93
2022-12-04T22:45:15.744Z,25.73
2022-12-04T22:47:44.359Z,25.40
2022-12-04T22:50:16.550Z,27.37
2022-12-04T22:52:45.504Z,32.50
2022-12-04T22:55:14.172Z,32.97
2022-12-04T22:57:42.965Z,35.10
2022-12-04T23:00:12.635Z,35.07
2022-12-04T23:02:41.167Z,32.07
2022-12-04T23:05:10.229Z,35.47
2022-12-04T23:07:40.631Z,35.43
2022-12-04T23:10:10.423Z,40.87
2022-12-04T23:12:39.083Z,36.03
2022-12-04T23:15:09.374Z,35.93
2022-12-04T23:17:37.869Z,37.43
2022-12-04T23:20:08.234Z,33.90
2022-12-04T23:22:37.278Z,34.83
2022-12-04T23:25:08.869Z,35.97
2022-12-04T23:27:37.830Z,38.73
2022-12-04T23:30:08.400Z,37.93
2022-12-04T23:32:37.104Z,35.70
2022-12-04T23:35:06.414Z,38.83
2022-12-04T23:37:34.935Z,37.27
2022-12-04T23:40:03.589Z,36.30
2022-12-04T23:42:34.661Z,36.43
2022-12-04T23:45:03.280Z,37.60
2022-12-04T23:47:32.398Z,38.20
2022-12-04T23:50:02.118Z,32.50
2022-12-04T23:52:30.792Z,38.43
2022-12-04T23:54:59.447Z,37.00
2022-12-04T23:57:30.616Z,37.40
